createdAt,value
2019-02-14T00:00:13.524Z,3.83
2019-02-14T00:02:42.438Z,11.77
2019-02-14T00:05:16.599Z,9.50
2019-02-14T00:07:41.972Z,15.03
2019-02-14T00:10:10.996Z,4.83
2019-02-14T00:12:39.768Z,10.27
2019-02-14T00:15:14.020Z,1.90
2019-02-14T00:17:44.011Z,6.07
2019-02-14T00:20:13.186Z,6.03
2019-02-14T00:22:42.189Z,4.27
2019-02-14T00:25:11.236Z,9.67
2019-02-14T00:27:43.500Z,5.43
2019-02-14T00:30:12.385Z,14.20
2019-02-14T00:32:41.230Z,12.83
2019-02-14T00:35:12.349Z,11.23
2019-02-14T00:37:40.928Z,10.43
2019-02-14T00:40:10.079Z,12.40
2019-02-14T00:42:39.005Z,11.67
2019-02-14T00:45:08.568Z,17.80
2019-02-14T00:47:37.491Z,12.87
2019-02-14T00:50:09.227Z,25.00
2019-02-14T00:52:38.121Z,15.17
2019-02-14T00:55:07.447Z,9.03
2019-02-14T00:57:36.586Z,8.17
2019-02-14T01:00:07.547Z,12.20
2019-02-14T01:02:36.832Z,20.63
2019-02-14T01:05:07.265Z,12.47
2019-02-14T01:07:36.091Z,18.17
2019-02-14T01:10:06.681Z,14.17
2019-02-14T01:12:35.767Z,12.20
2019-02-14T01:15:10.514Z,17.77
2019-02-14T01:17:39.617Z,13.23
2019-02-14T01:20:08.686Z,12.97
2019-02-14T01:22:37.558Z,7.67
2019-02-14T01:25:07.381Z,16.73
2019-02-14T01:27:36.332Z,16.57
2019-02-14T01:30:26.286Z,17.63
2019-02-14T01:32:55.391Z,10.63
2019-02-14T01:35:24.383Z,15.97
2019-02-14T01:37:53.324Z,18.60
2019-02-14T01:40:22.385Z,9.20
2019-02-14T01:42:55.864Z,8.43
2019-02-14T01:45:24.681Z,14.67
2019-02-14T01:47:53.405Z,9.50
2019-02-14T01:50:25.427Z,14.60
2019-02-14T01:52:54.552Z,15.50
2019-02-14T01:55:23.362Z,12.50
2019-02-14T01:57:52.762Z,20.87
2019-02-14T02:00:22.129Z,13.23
2019-02-14T02:02:51.561Z,14.83
2019-02-14T02:05:21.154Z,15.70
2019-02-14T02:07:49.978Z,21.10
2019-02-14T02:10:19.995Z,12.83
2019-02-14T02:12:52.058Z,17.07
2019-02-14T02:15:20.908Z,13.60
2019-02-14T02:17:50.275Z,13.47
2019-02-14T02:20:19.621Z,16.83
2019-02-14T02:22:48.914Z,14.97
2019-02-14T02:25:17.796Z,17.27
2019-02-14T02:27:46.709Z,14.37
2019-02-14T02:30:16.095Z,17.07
2019-02-14T02:32:45.099Z,16.77
2019-02-14T02:35:14.110Z,18.03
2019-02-14T02:37:43.364Z,11.67
2019-02-14T02:40:12.612Z,10.93
2019-02-14T02:42:41.430Z,19.13
2019-02-14T02:45:12.178Z,15.60
2019-02-14T02:47:41.149Z,21.10
2019-02-14T02:50:12.006Z,23.17
2019-02-14T02:52:40.863Z,26.77
2019-02-14T02:55:11.557Z,14.53
2019-02-14T02:57:40.704Z,26.60
2019-02-14T03:00:12.616Z,18.43
2019-02-14T03:02:41.644Z,15.77
2019-02-14T03:05:12.418Z,20.50
2019-02-14T03:07:41.328Z,10.30
2019-02-14T03:10:12.631Z,22.20
2019-02-14T03:12:41.434Z,12.70
2019-02-14T03:15:15.016Z,18.60
2019-02-14T03:17:44.102Z,7.27
2019-02-14T03:20:13.322Z,11.60
2019-02-14T03:22:42.618Z,13.70
2019-02-14T03:25:16.848Z,14.50
2019-02-14T03:27:45.988Z,10.97
2019-02-14T03:30:17.779Z,10.83
2019-02-14T03:32:46.683Z,22.00
2019-02-14T03:35:15.797Z,13.20
2019-02-14T03:37:44.792Z,12.97
2019-02-14T03:40:14.732Z,17.43
2019-02-14T03:42:44.224Z,13.77
2019-02-14T03:45:19.597Z,10.20
2019-02-14T03:47:48.812Z,11.63
2019-02-14T03:50:17.688Z,16.27
2019-02-14T03:52:46.706Z,14.13
2019-02-14T03:55:15.965Z,16.13
2019-02-14T03:57:44.813Z,10.60
2019-02-14T04:00:15.791Z,16.67
2019-02-14T04:02:44.934Z,17.73
2019-02-14T04:05:14.305Z,9.33
2019-02-14T04:07:52.136Z,22.20
2019-02-14T04:10:21.255Z,14.90
2019-02-14T04:12:50.040Z,10.87
2019-02-14T04:15:21.080Z,20.30
2019-02-14T04:17:53.007Z,22.03
2019-02-14T04:20:21.983Z,11.03
2019-02-14T04:22:50.897Z,16.57
2019-02-14T04:25:21.496Z,18.37
2019-02-14T04:27:52.394Z,18.73
2019-02-14T04:30:24.407Z,12.90
2019-02-14T04:32:53.377Z,15.67
2019-02-14T04:35:22.185Z,18.97
2019-02-14T04:37:52.619Z,20.63
2019-02-14T04:40:24.447Z,13.87
2019-02-14T04:42:53.597Z,13.60
2019-02-14T04:45:22.407Z,12.40
2019-02-14T04:47:51.818Z,21.13
2019-02-14T04:50:21.041Z,9.47
2019-02-14T04:52:50.048Z,19.23
2019-02-14T04:55:22.420Z,12.07
2019-02-14T04:57:51.663Z,19.13
2019-02-14T05:00:20.602Z,19.57
2019-02-14T05:02:49.906Z,18.67
2019-02-14T05:05:20.984Z,11.77
2019-02-14T05:07:49.997Z,13.10
2019-02-14T05:10:19.443Z,16.13
2019-02-14T05:12:48.397Z,10.97
2019-02-14T05:15:17.478Z,12.30
2019-02-14T05:17:46.552Z,19.30
2019-02-14T05:20:15.358Z,15.30
2019-02-14T05:22:44.271Z,14.50
2019-02-14T05:25:13.211Z,15.40
2019-02-14T05:27:42.206Z,12.47
2019-02-14T05:30:13.419Z,16.00
2019-02-14T05:32:42.916Z,21.00
2019-02-14T05:35:11.600Z,21.67
2019-02-14T05:37:40.524Z,17.03
2019-02-14T05:40:11.186Z,8.13
2019-02-14T05:42:39.972Z,9.70
2019-02-14T05:45:15.221Z,16.57
2019-02-14T05:47:44.178Z,12.73
2019-02-14T05:50:14.670Z,12.60
2019-02-14T05:52:43.626Z,8.07
2019-02-14T05:55:12.969Z,8.07
2019-02-14T05:57:42.058Z,16.13
2019-02-14T06:00:16.885Z,8.63
2019-02-14T06:02:45.751Z,12.63
2019-02-14T06:05:14.871Z,15.90
2019-02-14T06:07:44.020Z,9.73
2019-02-14T06:10:12.885Z,9.67
2019-02-14T06:12:41.869Z,9.13
2019-02-14T06:15:12.098Z,10.40
2019-02-14T06:17:41.039Z,10.50
2019-02-14T06:20:11.186Z,9.80
2019-02-14T06:22:40.286Z,4.50
2019-02-14T06:25:10.561Z,6.17
2019-02-14T06:27:39.443Z,7.40
2019-02-14T06:30:14.153Z,8.50
2019-02-14T06:32:43.782Z,4.27
2019-02-14T06:35:13.010Z,7.60
2019-02-14T06:37:42.093Z,7.23
2019-02-14T06:40:12.829Z,5.37
2019-02-14T06:42:41.723Z,7.50
2019-02-14T06:45:15.410Z,5.53
2019-02-14T06:47:44.359Z,6.07
2019-02-14T06:50:13.171Z,6.83
2019-02-14T06:52:42.243Z,5.17
2019-02-14T06:55:11.372Z,10.93
2019-02-14T06:57:40.394Z,2.87
2019-02-14T07:00:29.094Z,6.03
2019-02-14T07:02:58.119Z,2.63
2019-02-14T07:05:26.985Z,9.27
2019-02-14T07:07:58.998Z,4.60
2019-02-14T07:10:27.944Z,2.43
2019-02-14T07:12:56.678Z,6.33
2019-02-14T07:15:25.548Z,4.10
2019-02-14T07:17:54.426Z,4.30
2019-02-14T07:20:23.537Z,3.93
2019-02-14T07:22:52.581Z,3.13
2019-02-14T07:25:24.385Z,5.73
2019-02-14T07:27:53.541Z,5.60
2019-02-14T07:30:27.618Z,8.33
2019-02-14T07:32:56.640Z,5.53
2019-02-14T07:35:25.743Z,4.63
2019-02-14T07:37:54.551Z,8.50
2019-02-14T07:40:23.556Z,2.90
2019-02-14T07:42:52.481Z,5.37
2019-02-14T07:45:21.704Z,2.23
2019-02-14T07:47:51.598Z,4.67
2019-02-14T07:50:20.807Z,4.03
2019-02-14T07:52:52.612Z,2.80
2019-02-14T07:55:21.585Z,3.00
2019-02-14T07:57:50.707Z,3.17
2019-02-14T08:00:20.318Z,2.10
2019-02-14T08:02:52.768Z,2.70
2019-02-14T08:05:21.930Z,3.13
2019-02-14T08:07:50.874Z,2.77
2019-02-14T08:10:20.055Z,2.27
2019-02-14T08:12:49.710Z,2.53
2019-02-14T08:15:19.284Z,3.10
2019-02-14T08:17:48.521Z,2.60
2019-02-14T08:20:22.361Z,3.40
2019-02-14T08:22:52.641Z,2.83
2019-02-14T08:25:21.917Z,2.30
2019-02-14T08:27:53.410Z,2.40
2019-02-14T08:30:22.302Z,2.83
2019-02-14T08:32:51.346Z,2.00
2019-02-14T08:35:21.314Z,2.40
2019-02-14T08:37:50.332Z,2.83
2019-02-14T08:40:25.505Z,4.03
2019-02-14T08:42:54.633Z,2.87
2019-02-14T08:45:23.714Z,2.53
2019-02-14T08:47:52.704Z,1.83
2019-02-14T08:50:23.025Z,2.90
2019-02-14T08:52:51.976Z,2.20
2019-02-14T08:55:23.883Z,1.63
2019-02-14T08:57:52.819Z,2.87
2019-02-14T09:00:21.667Z,4.70
2019-02-14T09:02:50.753Z,3.33
2019-02-14T09:05:19.841Z,3.67
2019-02-14T09:07:54.586Z,2.07
2019-02-14T09:10:19.829Z,3.90
2019-02-14T09:12:51.116Z,2.57
2019-02-14T09:15:19.549Z,4.17
2019-02-14T09:17:50.188Z,3.17
2019-02-14T09:20:22.482Z,2.27
2019-02-14T09:22:51.763Z,2.53
2019-02-14T09:25:20.871Z,4.27
2019-02-14T09:27:49.812Z,2.57
2019-02-14T09:30:21.705Z,1.73
2019-02-14T09:32:50.905Z,3.27
2019-02-14T09:35:20.145Z,2.27
2019-02-14T09:37:50.257Z,2.47
2019-02-14T09:40:22.253Z,2.67
2019-02-14T09:42:52.696Z,2.83
2019-02-14T09:45:21.705Z,2.93
2019-02-14T09:47:50.732Z,4.43
2019-02-14T09:50:21.378Z,2.50
2019-02-14T09:52:52.003Z,4.17
2019-02-14T09:55:20.764Z,2.00
2019-02-14T09:57:49.890Z,3.20
2019-02-14T10:00:19.708Z,3.97
2019-02-14T10:02:49.886Z,2.77
2019-02-14T10:05:20.468Z,3.43
2019-02-14T10:07:49.441Z,1.70
2019-02-14T10:10:23.390Z,3.93
2019-02-14T10:12:52.114Z,2.63
2019-02-14T10:15:21.151Z,2.00
2019-02-14T10:20:42.234Z,2.83
2019-02-14T10:23:11.029Z,4.60
2019-02-14T10:25:40.161Z,2.60
2019-02-14T10:28:09.536Z,4.73
2019-02-14T10:30:40.178Z,2.63
2019-02-14T10:33:09.080Z,3.03
2019-02-14T10:35:38.677Z,3.03
2019-02-14T10:38:07.570Z,2.27
2019-02-14T10:40:38.311Z,1.97
2019-02-14T10:43:07.230Z,4.40
2019-02-14T10:45:36.016Z,2.30
2019-02-14T10:48:04.934Z,2.17
2019-02-14T10:50:34.292Z,4.80
2019-02-14T10:53:03.446Z,3.40
2019-02-14T10:55:32.384Z,3.43
2019-02-14T10:58:01.477Z,3.87
2019-02-14T11:00:30.384Z,2.13
2019-02-14T11:02:59.271Z,3.50
2019-02-14T11:05:28.463Z,2.80
2019-02-14T11:07:57.386Z,4.43
2019-02-14T11:10:27.287Z,5.97
2019-02-14T11:12:56.300Z,5.23
2019-02-14T11:15:25.786Z,1.63
2019-02-14T11:17:55.046Z,1.93
2019-02-14T11:20:24.172Z,2.30
2019-02-14T11:22:53.308Z,3.17
2019-02-14T11:25:34.195Z,4.40
2019-02-14T11:28:02.987Z,2.57
2019-02-14T11:30:32.180Z,4.83
2019-02-14T11:33:01.417Z,2.57
2019-02-14T11:35:30.280Z,2.13
2019-02-14T11:37:59.232Z,4.67
2019-02-14T11:40:28.637Z,3.77
2019-02-14T11:42:57.505Z,2.07
2019-02-14T11:45:27.134Z,3.43
2019-02-14T11:47:56.292Z,3.43
2019-02-14T11:50:25.183Z,3.90
2019-02-14T11:52:54.113Z,3.93
2019-02-14T11:55:23.462Z,5.50
2019-02-14T11:57:52.657Z,3.73
2019-02-14T12:00:24.692Z,4.13
2019-02-14T12:02:56.104Z,4.30
2019-02-14T12:05:24.199Z,4.57
2019-02-14T12:07:53.255Z,6.00
2019-02-14T12:10:22.159Z,7.50
2019-02-14T12:12:50.967Z,4.30
2019-02-14T12:15:23.533Z,7.00
2019-02-14T12:17:52.482Z,7.90
2019-02-14T12:20:22.783Z,3.00
2019-02-14T12:22:51.819Z,3.47
2019-02-14T12:25:23.059Z,4.00
2019-02-14T12:27:52.211Z,4.80
2019-02-14T12:30:40.522Z,5.33
2019-02-14T12:33:09.353Z,3.17
2019-02-14T12:35:38.249Z,2.53
2019-02-14T12:38:07.449Z,2.60
2019-02-14T12:40:36.373Z,4.30
2019-02-14T12:43:24.666Z,5.00
2019-02-14T12:45:53.521Z,6.17
2019-02-14T12:48:22.671Z,4.70
2019-02-14T12:50:51.917Z,3.97
2019-02-14T12:53:22.311Z,6.83
2019-02-14T12:55:51.445Z,6.67
2019-02-14T12:58:20.783Z,6.33
2019-02-14T13:00:49.795Z,3.70
2019-02-14T13:03:22.237Z,9.77
2019-02-14T13:05:51.315Z,9.83
2019-02-14T13:08:20.118Z,4.87
2019-02-14T13:10:52.330Z,6.97
2019-02-14T13:13:21.715Z,8.67
2019-02-14T13:15:53.681Z,4.10
2019-02-14T13:18:22.780Z,5.60
2019-02-14T13:20:51.774Z,5.07
2019-02-14T13:23:20.890Z,3.10
2019-02-14T13:25:49.740Z,5.47
2019-02-14T13:28:18.541Z,18.47
2019-02-14T13:30:47.574Z,6.67
2019-02-14T13:33:16.842Z,5.77
2019-02-14T13:35:45.649Z,11.23
2019-02-14T13:38:14.697Z,9.83
2019-02-14T13:40:47.011Z,4.70
2019-02-14T13:43:16.240Z,5.57
2019-02-14T13:45:45.097Z,3.93
2019-02-14T13:48:14.040Z,3.00
2019-02-14T13:50:43.339Z,5.03
2019-02-14T13:53:12.498Z,6.40
2019-02-14T13:55:41.270Z,9.23
2019-02-14T13:58:11.439Z,6.97
2019-02-14T14:00:40.407Z,4.80
2019-02-14T14:03:09.546Z,8.97
2019-02-14T14:05:38.544Z,10.50
2019-02-14T14:08:10.260Z,8.67
2019-02-14T14:10:39.175Z,9.50
2019-02-14T14:13:08.111Z,8.97
2019-02-14T14:15:38.044Z,6.50
2019-02-14T14:18:08.929Z,9.37
2019-02-14T14:20:39.544Z,6.93
2019-02-14T14:23:08.457Z,3.53
2019-02-14T14:25:37.271Z,4.13
2019-02-14T14:28:06.107Z,5.37
2019-02-14T14:30:35.241Z,9.67
2019-02-14T14:33:04.304Z,7.40
2019-02-14T14:35:33.173Z,3.57
2019-02-14T14:38:02.034Z,10.30
2019-02-14T14:40:30.856Z,8.83
2019-02-14T14:43:16.732Z,3.37
2019-02-14T14:45:53.101Z,6.67
2019-02-14T14:48:22.901Z,5.57
2019-02-14T14:50:55.079Z,6.03
2019-02-14T14:53:24.068Z,8.80
2019-02-14T14:55:52.901Z,4.53
2019-02-14T14:58:21.720Z,7.50
2019-02-14T15:00:53.809Z,5.30
2019-02-14T15:03:22.772Z,4.43
2019-02-14T15:05:51.875Z,5.53
2019-02-14T15:08:23.900Z,5.43
2019-02-14T15:10:52.963Z,10.40
2019-02-14T15:13:21.804Z,10.23
2019-02-14T15:15:51.435Z,4.63
2019-02-14T15:18:20.606Z,6.60
2019-02-14T15:20:49.706Z,5.23
2019-02-14T15:23:19.414Z,13.00
2019-02-14T15:25:48.642Z,7.23
2019-02-14T15:28:17.509Z,6.97
2019-02-14T15:30:49.388Z,3.97
2019-02-14T15:33:20.441Z,11.13
2019-02-14T15:35:49.555Z,4.97
2019-02-14T15:38:18.599Z,10.67
2019-02-14T15:40:47.678Z,10.77
2019-02-14T15:43:16.723Z,5.37
2019-02-14T15:45:45.690Z,7.17
2019-02-14T15:48:14.550Z,3.83
2019-02-14T15:50:43.778Z,9.40
2019-02-14T15:53:12.803Z,7.70
2019-02-14T15:55:43.669Z,5.30
2019-02-14T15:58:12.517Z,4.57
2019-02-14T16:00:41.649Z,6.50
2019-02-14T16:03:10.492Z,4.67
2019-02-14T16:05:40.265Z,7.60
2019-02-14T16:08:10.359Z,6.40
2019-02-14T16:10:40.882Z,5.63
2019-02-14T16:13:09.977Z,5.00
2019-02-14T16:15:38.745Z,6.53
2019-02-14T16:18:07.616Z,10.03
2019-02-14T16:20:36.939Z,5.97
2019-02-14T16:23:06.497Z,6.17
2019-02-14T16:25:36.356Z,9.63
2019-02-14T16:28:05.510Z,9.40
2019-02-14T16:30:34.385Z,9.93
2019-02-14T16:33:03.204Z,5.43
2019-02-14T16:35:32.199Z,4.93
2019-02-14T16:38:01.334Z,6.83
2019-02-14T16:40:38.354Z,5.93
2019-02-14T16:43:01.581Z,6.70
2019-02-14T16:45:30.370Z,3.73
2019-02-14T16:47:59.140Z,5.50
2019-02-14T16:50:28.491Z,9.37
2019-02-14T16:52:57.686Z,6.27
2019-02-14T16:55:26.727Z,4.60
2019-02-14T16:57:55.629Z,6.23
2019-02-14T17:00:24.558Z,7.40
2019-02-14T17:02:56.301Z,6.53
2019-02-14T17:05:25.569Z,5.60
2019-02-14T17:07:56.050Z,6.00
2019-02-14T17:10:24.795Z,5.30
2019-02-14T17:12:53.797Z,5.70
2019-02-14T17:15:22.859Z,5.33
2019-02-14T17:17:51.919Z,8.87
2019-02-14T17:20:21.461Z,5.77
2019-02-14T17:22:50.605Z,9.13
2019-02-14T17:25:19.604Z,4.53
2019-02-14T17:27:49.764Z,5.67
2019-02-14T17:30:18.786Z,6.43
2019-02-14T17:32:47.821Z,9.50
2019-02-14T17:35:16.936Z,4.77
2019-02-14T17:37:45.848Z,8.77
2019-02-14T17:40:14.875Z,6.90
2019-02-14T17:42:45.609Z,6.03
2019-02-14T17:45:14.458Z,6.47
2019-02-14T17:47:43.475Z,9.33
2019-02-14T17:50:12.774Z,3.37
2019-02-14T17:52:41.861Z,10.10
2019-02-14T17:55:10.992Z,5.60
2019-02-14T17:57:39.910Z,5.60
2019-02-14T18:00:29.016Z,5.73
2019-02-14T18:02:58.285Z,8.43
2019-02-14T18:05:28.495Z,7.50
2019-02-14T18:07:58.343Z,7.07
2019-02-14T18:10:27.695Z,5.77
2019-02-14T18:12:56.618Z,6.40
2019-02-14T18:15:25.567Z,9.27
2019-02-14T18:17:54.547Z,6.93
2019-02-14T18:20:23.477Z,4.43
2019-02-14T18:22:52.370Z,11.67
2019-02-14T18:25:21.691Z,6.47
2019-02-14T18:27:50.702Z,9.47
2019-02-14T18:30:19.797Z,8.13
2019-02-14T18:32:49.238Z,3.63
2019-02-14T18:35:18.285Z,9.07
2019-02-14T18:37:47.294Z,3.73
2019-02-14T18:40:16.334Z,4.90
2019-02-14T18:42:46.996Z,8.70
2019-02-14T18:45:15.907Z,8.63
2019-02-14T18:47:45.699Z,6.87
2019-02-14T18:50:15.367Z,8.27
2019-02-14T18:52:44.390Z,7.07
2019-02-14T18:55:13.383Z,6.00
2019-02-14T18:57:42.127Z,8.33
2019-02-14T19:00:15.948Z,5.07
2019-02-14T19:02:47.199Z,9.30
2019-02-14T19:05:15.619Z,7.60
2019-02-14T19:07:44.696Z,13.17
2019-02-14T19:10:15.840Z,7.43
2019-02-14T19:12:44.892Z,12.10
2019-02-14T19:15:14.320Z,6.60
2019-02-14T19:17:43.147Z,4.80
2019-02-14T19:20:12.876Z,5.03
2019-02-14T19:22:42.422Z,4.67
2019-02-14T19:25:11.706Z,5.73
2019-02-14T19:27:40.931Z,5.07
2019-02-14T19:30:12.979Z,6.93
2019-02-14T19:32:41.902Z,7.47
2019-02-14T19:35:11.363Z,8.17
2019-02-14T19:37:40.339Z,6.73
2019-02-14T19:40:09.796Z,10.63
2019-02-14T19:42:38.681Z,4.97
2019-02-14T19:45:10.078Z,5.20
2019-02-14T19:47:38.961Z,6.53
2019-02-14T19:50:12.979Z,8.03
2019-02-14T19:52:41.824Z,9.50
2019-02-14T19:55:10.644Z,6.63
2019-02-14T19:57:39.739Z,7.80
2019-02-14T20:00:11.485Z,10.10
2019-02-14T20:02:40.497Z,5.63
2019-02-14T20:05:10.330Z,13.03
2019-02-14T20:07:39.169Z,8.13
2019-02-14T20:10:10.763Z,9.13
2019-02-14T20:12:39.976Z,12.77
2019-02-14T20:15:11.494Z,10.67
2019-02-14T20:17:40.519Z,9.53
2019-02-14T20:20:10.063Z,8.73
2019-02-14T20:22:39.063Z,9.00
2019-02-14T20:25:14.731Z,7.57
2019-02-14T20:27:43.464Z,8.47
2019-02-14T20:30:12.235Z,10.43
2019-02-14T20:32:42.135Z,15.27
2019-02-14T20:35:11.088Z,11.40
2019-02-14T20:37:41.905Z,11.07
2019-02-14T20:40:11.614Z,16.33
2019-02-14T20:42:40.615Z,10.57
2019-02-14T20:45:14.658Z,8.40
2019-02-14T20:47:43.683Z,13.37
2019-02-14T20:50:13.950Z,11.60
2019-02-14T20:52:42.940Z,8.10
2019-02-14T20:55:17.419Z,10.87
2019-02-14T20:57:49.530Z,12.20
2019-02-14T21:00:20.244Z,11.50
2019-02-14T21:02:49.643Z,13.00
2019-02-14T21:05:18.924Z,11.93
2019-02-14T21:07:47.721Z,10.53
2019-02-14T21:10:16.565Z,13.40
2019-02-14T21:12:46.677Z,9.77
2019-02-14T21:15:15.590Z,14.23
2019-02-14T21:17:44.566Z,11.50
2019-02-14T21:20:15.253Z,10.87
2019-02-14T21:22:44.254Z,7.80
2019-02-14T21:25:13.438Z,8.27
2019-02-14T21:27:42.432Z,8.70
2019-02-14T21:30:14.404Z,9.40
2019-02-14T21:32:43.516Z,11.30
2019-02-14T21:35:12.589Z,7.67
2019-02-14T21:37:41.495Z,7.97
2019-02-14T21:40:15.936Z,8.90
2019-02-14T21:42:44.684Z,6.53
2019-02-14T21:45:14.526Z,10.70
2019-02-14T21:47:43.906Z,8.07
2019-02-14T21:50:13.876Z,9.53
2019-02-14T21:52:43.210Z,7.50
2019-02-14T21:55:16.531Z,9.70
2019-02-14T21:57:45.773Z,7.40
2019-02-14T22:00:26.977Z,8.87
2019-02-14T22:02:56.152Z,7.33
2019-02-14T22:05:27.057Z,7.37
2019-02-14T22:07:56.649Z,7.47
2019-02-14T22:10:25.457Z,10.83
2019-02-14T22:12:54.415Z,10.17
2019-02-14T22:15:25.623Z,13.93
2019-02-14T22:17:54.516Z,6.77
2019-02-14T22:20:23.684Z,6.23
2019-02-14T22:22:53.268Z,8.27
2019-02-14T22:25:22.037Z,11.00
2019-02-14T22:27:51.407Z,10.83
2019-02-14T22:30:21.871Z,5.27
2019-02-14T22:32:52.655Z,14.47
2019-02-14T22:35:21.675Z,9.40
2019-02-14T22:37:53.663Z,11.07
2019-02-14T22:40:22.571Z,8.73
2019-02-14T22:42:51.888Z,8.23
2019-02-14T22:45:40.357Z,12.90
2019-02-14T22:48:09.318Z,7.73
2019-02-14T22:50:37.985Z,9.23
2019-02-14T22:53:07.073Z,8.40
2019-02-14T22:55:36.161Z,12.00
2019-02-14T22:58:05.576Z,12.97
2019-02-14T23:00:37.865Z,9.63
2019-02-14T23:03:06.937Z,7.60
2019-02-14T23:05:35.813Z,7.83
2019-02-14T23:08:04.975Z,13.23
2019-02-14T23:10:33.785Z,9.37
2019-02-14T23:13:02.638Z,10.93
2019-02-14T23:15:31.674Z,12.20
2019-02-14T23:18:02.922Z,9.57
2019-02-14T23:20:31.726Z,13.47
2019-02-14T23:23:00.681Z,10.10
2019-02-14T23:25:29.669Z,9.13
2019-02-14T23:27:58.635Z,10.67
2019-02-14T23:30:27.923Z,8.00
2019-02-14T23:32:57.004Z,18.07
2019-02-14T23:35:25.848Z,8.03
2019-02-14T23:37:56.370Z,8.23
2019-02-14T23:40:25.243Z,8.23
2019-02-14T23:42:54.219Z,13.17
2019-02-14T23:45:23.646Z,8.23
2019-02-14T23:47:52.462Z,8.93
2019-02-14T23:50:23.090Z,16.63
2019-02-14T23:52:52.119Z,15.57
2019-02-14T23:55:21.234Z,11.33
2019-02-14T23:57:51.029Z,12.57
